sensor_id;sensor_type;location;lat;lon;timestamp;temperature;humidity
36654;DHT22;22650;49.350;20.898;2022-12-18T00:01:47;-1.50;99.90
36654;DHT22;22650;49.350;20.898;2022-12-18T00:04:22;-1.50;99.90
36654;DHT22;22650;49.350;20.898;2022-12-18T00:06:56;-1.50;99.90
36654;DHT22;22650;49.350;20.898;2022-12-18T00:09:29;-1.40;99.90
36654;DHT22;22650;49.350;20.898;2022-12-18T00:12:11;-1.50;99.90
36654;DHT22;22650;49.350;20.898;2022-12-18T00:14:48;-1.40;99.90
36654;DHT22;22650;49.350;20.898;2022-12-18T00:17:21;-1.50;99.90
36654;DHT22;22650;49.350;20.898;2022-12-18T00:19:54;-1.50;99.90
36654;DHT22;22650;49.350;20.898;2022-12-18T00:22:28;-1.50;99.90
36654;DHT22;22650;49.350;20.898;2022-12-18T00:25:01;-1.50;99.90
36654;DHT22;22650;49.350;20.898;2022-12-18T00:27:34;-1.60;99.90
36654;DHT22;22650;49.350;20.898;2022-12-18T00:30:10;-1.60;99.90
36654;DHT22;22650;49.350;20.898;2022-12-18T00:32:44;-1.60;99.90
36654;DHT22;22650;49.350;20.898;2022-12-18T00:35:17;-1.60;99.90
36654;DHT22;22650;49.350;20.898;2022-12-18T00:37:51;-1.60;99.90
36654;DHT22;22650;49.350;20.898;2022-12-18T00:40:24;-1.60;99.90
36654;DHT22;22650;49.350;20.898;2022-12-18T00:42:58;-1.60;99.90
36654;DHT22;22650;49.350;20.898;2022-12-18T00:45:32;-1.60;99.90
36654;DHT22;22650;49.350;20.898;2022-12-18T00:48:05;-1.70;99.90
36654;DHT22;22650;49.350;20.898;2022-12-18T00:50:39;-1.70;99.90
36654;DHT22;22650;49.350;20.898;2022-12-18T00:53:13;-1.80;99.90
36654;DHT22;22650;49.350;20.898;2022-12-18T00:55:46;-1.80;99.90
36654;DHT22;22650;49.350;20.898;2022-12-18T00:58:20;-1.80;99.90
36654;DHT22;22650;49.350;20.898;2022-12-18T01:00:55;-1.80;99.90
36654;DHT22;22650;49.350;20.898;2022-12-18T01:03:28;-1.90;99.90
36654;DHT22;22650;49.350;20.898;2022-12-18T01:06:06;-2.00;99.90
36654;DHT22;22650;49.350;20.898;2022-12-18T01:08:39;-2.00;99.90
36654;DHT22;22650;49.350;20.898;2022-12-18T01:11:19;-2.00;99.90
36654;DHT22;22650;49.350;20.898;2022-12-18T01:13:53;-2.10;99.90
36654;DHT22;22650;49.350;20.898;2022-12-18T01:16:28;-2.10;99.90
36654;DHT22;22650;49.350;20.898;2022-12-18T01:19:02;-2.20;99.90
36654;DHT22;22650;49.350;20.898;2022-12-18T01:21:35;-2.20;99.90
36654;DHT22;22650;49.350;20.898;2022-12-18T01:24:11;-2.20;99.90
36654;DHT22;22650;49.350;20.898;2022-12-18T01:26:46;-2.20;99.90
36654;DHT22;22650;49.350;20.898;2022-12-18T01:29:19;-2.30;99.90
36654;DHT22;22650;49.350;20.898;2022-12-18T01:31:54;-2.40;99.90
36654;DHT22;22650;49.350;20.898;2022-12-18T01:34:28;-2.40;99.90
36654;DHT22;22650;49.350;20.898;2022-12-18T01:37:03;-2.50;99.90
36654;DHT22;22650;49.350;20.898;2022-12-18T01:39:36;-2.50;99.90
36654;DHT22;22650;49.350;20.898;2022-12-18T01:42:11;-2.50;99.90
36654;DHT22;22650;49.350;20.898;2022-12-18T01:45:06;-2.60;99.90
36654;DHT22;22650;49.350;20.898;2022-12-18T01:47:44;-2.60;99.90
36654;DHT22;22650;49.350;20.898;2022-12-18T01:50:21;-2.60;99.90
36654;DHT22;22650;49.350;20.898;2022-12-18T01:52:58;-2.60;99.90
36654;DHT22;22650;49.350;20.898;2022-12-18T01:55:36;-2.60;99.90
36654;DHT22;22650;49.350;20.898;2022-12-18T01:58:11;-2.70;99.90
36654;DHT22;22650;49.350;20.898;2022-12-18T02:00:44;-2.80;99.90
36654;DHT22;22650;49.350;20.898;2022-12-18T02:03:20;-2.80;99.90
36654;DHT22;22650;49.350;20.898;2022-12-18T02:06:01;-2.90;99.90
36654;DHT22;22650;49.350;20.898;2022-12-18T02:11:39;-3.00;99.90
36654;DHT22;22650;49.350;20.898;2022-12-18T02:14:19;-3.00;99.90
36654;DHT22;22650;49.350;20.898;2022-12-18T02:17:03;-3.00;99.90
36654;DHT22;22650;49.350;20.898;2022-12-18T02:19:47;-3.00;99.90
36654;DHT22;22650;49.350;20.898;2022-12-18T02:22:29;-3.10;99.90
36654;DHT22;22650;49.350;20.898;2022-12-18T02:25:17;-3.10;99.90
36654;DHT22;22650;49.350;20.898;2022-12-18T02:27:56;-3.10;99.90
36654;DHT22;22650;49.350;20.898;2022-12-18T02:30:35;-3.20;99.90
36654;DHT22;22650;49.350;20.898;2022-12-18T02:33:11;-3.30;99.90
36654;DHT22;22650;49.350;20.898;2022-12-18T02:35:48;-3.40;99.90
36654;DHT22;22650;49.350;20.898;2022-12-18T02:38:25;-3.40;99.90
36654;DHT22;22650;49.350;20.898;2022-12-18T02:40:59;-3.40;99.90
36654;DHT22;22650;49.350;20.898;2022-12-18T02:43:34;-3.50;99.90
36654;DHT22;22650;49.350;20.898;2022-12-18T02:46:28;-3.60;99.90
36654;DHT22;22650;49.350;20.898;2022-12-18T02:49:14;-3.60;99.90
36654;DHT22;22650;49.350;20.898;2022-12-18T02:51:55;-3.70;99.90
36654;DHT22;22650;49.350;20.898;2022-12-18T02:54:39;-3.70;99.90
36654;DHT22;22650;49.350;20.898;2022-12-18T02:57:19;-3.80;99.90
36654;DHT22;22650;49.350;20.898;2022-12-18T03:00:01;-3.80;99.90
36654;DHT22;22650;49.350;20.898;2022-12-18T03:02:40;-3.90;99.90
36654;DHT22;22650;49.350;20.898;2022-12-18T03:05:19;-3.80;99.90
36654;DHT22;22650;49.350;20.898;2022-12-18T03:07:57;-3.80;99.90
36654;DHT22;22650;49.350;20.898;2022-12-18T03:10:38;-3.80;99.90
36654;DHT22;22650;49.350;20.898;2022-12-18T03:13:16;-3.80;99.90
36654;DHT22;22650;49.350;20.898;2022-12-18T03:15:55;-3.80;99.90
36654;DHT22;22650;49.350;20.898;2022-12-18T03:18:33;-3.80;99.90
36654;DHT22;22650;49.350;20.898;2022-12-18T03:21:08;-3.90;99.90
36654;DHT22;22650;49.350;20.898;2022-12-18T03:23:47;-3.80;99.90
36654;DHT22;22650;49.350;20.898;2022-12-18T03:26:25;-3.80;99.90
36654;DHT22;22650;49.350;20.898;2022-12-18T03:29:07;-3.80;99.90
36654;DHT22;22650;49.350;20.898;2022-12-18T03:31:49;-3.80;99.90
36654;DHT22;22650;49.350;20.898;2022-12-18T03:34:26;-3.80;99.90
36654;DHT22;22650;49.350;20.898;2022-12-18T03:37:05;-3.90;99.90
36654;DHT22;22650;49.350;20.898;2022-12-18T03:39:39;-3.90;99.90
36654;DHT22;22650;49.350;20.898;2022-12-18T03:42:16;-3.90;99.90
36654;DHT22;22650;49.350;20.898;2022-12-18T03:45:01;-3.90;99.90
36654;DHT22;22650;49.350;20.898;2022-12-18T03:47:41;-3.90;99.90
36654;DHT22;22650;49.350;20.898;2022-12-18T03:50:21;-3.90;99.90
36654;DHT22;22650;49.350;20.898;2022-12-18T03:53:00;-4.00;99.90
36654;DHT22;22650;49.350;20.898;2022-12-18T03:55:37;-4.00;99.90
36654;DHT22;22650;49.350;20.898;2022-12-18T03:58:14;-4.10;99.90
36654;DHT22;22650;49.350;20.898;2022-12-18T04:01:03;-4.20;99.90
36654;DHT22;22650;49.350;20.898;2022-12-18T04:03:41;-4.30;99.90
36654;DHT22;22650;49.350;20.898;2022-12-18T04:06:17;-4.30;99.90
36654;DHT22;22650;49.350;20.898;2022-12-18T04:08:51;-4.30;99.90
36654;DHT22;22650;49.350;20.898;2022-12-18T04:11:27;-4.40;99.90
36654;DHT22;22650;49.350;20.898;2022-12-18T04:14:00;-4.50;99.90
36654;DHT22;22650;49.350;20.898;2022-12-18T04:16:38;-4.60;99.90
36654;DHT22;22650;49.350;20.898;2022-12-18T04:19:16;-4.60;99.90
36654;DHT22;22650;49.350;20.898;2022-12-18T04:21:52;-4.60;99.90
36654;DHT22;22650;49.350;20.898;2022-12-18T04:24:26;-4.70;99.90
36654;DHT22;22650;49.350;20.898;2022-12-18T04:27:12;-4.70;99.90
36654;DHT22;22650;49.350;20.898;2022-12-18T04:29:51;-4.70;99.90
36654;DHT22;22650;49.350;20.898;2022-12-18T04:32:24;-4.70;99.90
36654;DHT22;22650;49.350;20.898;2022-12-18T04:34:59;-4.80;99.90
36654;DHT22;22650;49.350;20.898;2022-12-18T04:37:32;-4.90;99.90
36654;DHT22;22650;49.350;20.898;2022-12-18T04:40:07;-5.00;99.90
36654;DHT22;22650;49.350;20.898;2022-12-18T04:42:45;-5.00;99.90
36654;DHT22;22650;49.350;20.898;2022-12-18T04:45:18;-5.10;99.90
36654;DHT22;22650;49.350;20.898;2022-12-18T04:47:52;-5.20;99.90
36654;DHT22;22650;49.350;20.898;2022-12-18T04:50:27;-5.20;99.90
36654;DHT22;22650;49.350;20.898;2022-12-18T04:53:01;-5.20;99.90
36654;DHT22;22650;49.350;20.898;2022-12-18T04:55:34;-5.20;99.90
36654;DHT22;22650;49.350;20.898;2022-12-18T04:58:08;-5.20;99.90
36654;DHT22;22650;49.350;20.898;2022-12-18T05:00:41;-5.20;99.90
36654;DHT22;22650;49.350;20.898;2022-12-18T05:03:15;-5.20;99.90
36654;DHT22;22650;49.350;20.898;2022-12-18T05:05:51;-5.20;99.90
36654;DHT22;22650;49.350;20.898;2022-12-18T05:08:24;-5.30;99.90
36654;DHT22;22650;49.350;20.898;2022-12-18T05:11:02;-5.30;99.90
36654;DHT22;22650;49.350;20.898;2022-12-18T05:13:36;-5.40;99.90
36654;DHT22;22650;49.350;20.898;2022-12-18T05:16:12;-5.40;99.90
36654;DHT22;22650;49.350;20.898;2022-12-18T05:18:46;-5.50;99.90
36654;DHT22;22650;49.350;20.898;2022-12-18T05:21:21;-5.50;99.90
36654;DHT22;22650;49.350;20.898;2022-12-18T05:23:54;-5.50;99.90
36654;DHT22;22650;49.350;20.898;2022-12-18T05:26:28;-5.50;99.90
36654;DHT22;22650;49.350;20.898;2022-12-18T05:29:01;-5.50;99.90
36654;DHT22;22650;49.350;20.898;2022-12-18T05:31:35;-5.50;99.90
36654;DHT22;22650;49.350;20.898;2022-12-18T05:34:10;-5.50;99.90
36654;DHT22;22650;49.350;20.898;2022-12-18T05:36:46;-5.50;99.90
36654;DHT22;22650;49.350;20.898;2022-12-18T05:39:19;-5.60;99.90
36654;DHT22;22650;49.350;20.898;2022-12-18T05:41:52;-5.70;99.90
36654;DHT22;22650;49.350;20.898;2022-12-18T05:44:26;-5.70;99.90
36654;DHT22;22650;49.350;20.898;2022-12-18T05:46:59;-5.70;99.90
36654;DHT22;22650;49.350;20.898;2022-12-18T05:49:32;-5.70;99.90
36654;DHT22;22650;49.350;20.898;2022-12-18T05:52:07;-5.70;99.90
36654;DHT22;22650;49.350;20.898;2022-12-18T05:54:41;-5.80;99.90
36654;DHT22;22650;49.350;20.898;2022-12-18T05:57:14;-5.80;99.90
36654;DHT22;22650;49.350;20.898;2022-12-18T05:59:47;-5.80;99.90
36654;DHT22;22650;49.350;20.898;2022-12-18T06:02:20;-5.80;99.90
36654;DHT22;22650;49.350;20.898;2022-12-18T06:04:54;-5.90;99.90
36654;DHT22;22650;49.350;20.898;2022-12-18T06:07:29;-5.90;99.90
36654;DHT22;22650;49.350;20.898;2022-12-18T06:10:02;-6.00;99.90
36654;DHT22;22650;49.350;20.898;2022-12-18T06:12:36;-6.00;99.90
36654;DHT22;22650;49.350;20.898;2022-12-18T06:15:10;-6.10;99.90
36654;DHT22;22650;49.350;20.898;2022-12-18T06:17:43;-6.10;99.90
36654;DHT22;22650;49.350;20.898;2022-12-18T06:20:17;-6.10;99.90
36654;DHT22;22650;49.350;20.898;2022-12-18T06:22:52;-6.10;99.90
36654;DHT22;22650;49.350;20.898;2022-12-18T06:25:25;-6.00;99.90
36654;DHT22;22650;49.350;20.898;2022-12-18T06:27:59;-6.10;99.90
36654;DHT22;22650;49.350;20.898;2022-12-18T06:30:32;-6.10;99.90
36654;DHT22;22650;49.350;20.898;2022-12-18T06:33:05;-6.10;99.90
36654;DHT22;22650;49.350;20.898;2022-12-18T06:35:39;-6.10;99.90
36654;DHT22;22650;49.350;20.898;2022-12-18T06:38:13;-6.10;99.90
36654;DHT22;22650;49.350;20.898;2022-12-18T06:40:47;-6.20;99.90
36654;DHT22;22650;49.350;20.898;2022-12-18T06:43:20;-6.20;99.90
36654;DHT22;22650;49.350;20.898;2022-12-18T06:46:00;-6.20;99.90
36654;DHT22;22650;49.350;20.898;2022-12-18T06:48:34;-6.20;99.90
36654;DHT22;22650;49.350;20.898;2022-12-18T06:51:08;-6.20;99.90
36654;DHT22;22650;49.350;20.898;2022-12-18T06:53:43;-6.20;99.90
36654;DHT22;22650;49.350;20.898;2022-12-18T06:56:16;-6.20;99.90
36654;DHT22;22650;49.350;20.898;2022-12-18T06:58:50;-6.20;99.90
36654;DHT22;22650;49.350;20.898;2022-12-18T07:01:23;-6.10;99.90
36654;DHT22;22650;49.350;20.898;2022-12-18T07:03:57;-6.10;99.90
36654;DHT22;22650;49.350;20.898;2022-12-18T07:06:30;-6.10;99.90
36654;DHT22;22650;49.350;20.898;2022-12-18T07:09:05;-6.00;99.90
36654;DHT22;22650;49.350;20.898;2022-12-18T07:11:38;-6.00;99.90
36654;DHT22;22650;49.350;20.898;2022-12-18T07:14:12;-5.90;99.90
36654;DHT22;22650;49.350;20.898;2022-12-18T07:16:45;-5.90;99.90
36654;DHT22;22650;49.350;20.898;2022-12-18T07:19:18;-5.80;99.90
36654;DHT22;22650;49.350;20.898;2022-12-18T07:21:52;-5.80;99.90
36654;DHT22;22650;49.350;20.898;2022-12-18T07:24:27;-5.70;99.90
36654;DHT22;22650;49.350;20.898;2022-12-18T07:27:00;-5.70;99.90
36654;DHT22;22650;49.350;20.898;2022-12-18T07:29:33;-5.70;99.90
36654;DHT22;22650;49.350;20.898;2022-12-18T07:32:07;-5.70;99.90
36654;DHT22;22650;49.350;20.898;2022-12-18T07:34:41;-5.70;99.90
36654;DHT22;22650;49.350;20.898;2022-12-18T07:37:14;-5.70;99.90
36654;DHT22;22650;49.350;20.898;2022-12-18T07:39:49;-5.60;99.90
36654;DHT22;22650;49.350;20.898;2022-12-18T07:42:23;-5.60;99.90
36654;DHT22;22650;49.350;20.898;2022-12-18T07:45:05;-5.70;99.90
36654;DHT22;22650;49.350;20.898;2022-12-18T07:47:39;-5.70;99.90
36654;DHT22;22650;49.350;20.898;2022-12-18T07:50:13;-5.70;99.90
36654;DHT22;22650;49.350;20.898;2022-12-18T07:52:46;-5.70;99.90
36654;DHT22;22650;49.350;20.898;2022-12-18T07:55:21;-5.70;99.90
36654;DHT22;22650;49.350;20.898;2022-12-18T07:57:54;-5.70;99.90
36654;DHT22;22650;49.350;20.898;2022-12-18T08:00:32;-5.70;99.90
36654;DHT22;22650;49.350;20.898;2022-12-18T08:03:05;-5.70;99.90
36654;DHT22;22650;49.350;20.898;2022-12-18T08:05:39;-5.60;99.90
36654;DHT22;22650;49.350;20.898;2022-12-18T08:08:12;-5.60;99.90
36654;DHT22;22650;49.350;20.898;2022-12-18T08:10:47;-5.60;99.90
36654;DHT22;22650;49.350;20.898;2022-12-18T08:13:20;-5.60;99.90
36654;DHT22;22650;49.350;20.898;2022-12-18T08:15:57;-5.60;99.90
36654;DHT22;22650;49.350;20.898;2022-12-18T08:18:32;-5.60;99.90
36654;DHT22;22650;49.350;20.898;2022-12-18T08:21:08;-5.60;99.90
36654;DHT22;22650;49.350;20.898;2022-12-18T08:23:42;-5.50;99.90
36654;DHT22;22650;49.350;20.898;2022-12-18T08:26:19;-5.40;99.90
36654;DHT22;22650;49.350;20.898;2022-12-18T08:28:54;-5.40;99.90
36654;DHT22;22650;49.350;20.898;2022-12-18T08:31:28;-5.30;99.90
36654;DHT22;22650;49.350;20.898;2022-12-18T08:34:02;-5.20;99.90
36654;DHT22;22650;49.350;20.898;2022-12-18T08:36:35;-5.10;99.90
36654;DHT22;22650;49.350;20.898;2022-12-18T08:39:08;-5.10;99.90
36654;DHT22;22650;49.350;20.898;2022-12-18T08:41:43;-4.90;99.90
36654;DHT22;22650;49.350;20.898;2022-12-18T08:44:41;-4.80;99.90
36654;DHT22;22650;49.350;20.898;2022-12-18T08:47:13;-4.60;99.90
36654;DHT22;22650;49.350;20.898;2022-12-18T08:49:47;-4.40;99.90
36654;DHT22;22650;49.350;20.898;2022-12-18T08:52:20;-4.20;99.90
36654;DHT22;22650;49.350;20.898;2022-12-18T08:54:53;-4.00;99.90
36654;DHT22;22650;49.350;20.898;2022-12-18T08:57:28;-3.90;99.90
36654;DHT22;22650;49.350;20.898;2022-12-18T09:00:01;-3.70;99.90
36654;DHT22;22650;49.350;20.898;2022-12-18T09:02:35;-3.60;99.90
36654;DHT22;22650;49.350;20.898;2022-12-18T09:05:08;-3.40;99.90
36654;DHT22;22650;49.350;20.898;2022-12-18T09:07:42;-3.40;99.90
36654;DHT22;22650;49.350;20.898;2022-12-18T09:10:16;-3.30;99.90
36654;DHT22;22650;49.350;20.898;2022-12-18T09:12:51;-3.10;99.90
36654;DHT22;22650;49.350;20.898;2022-12-18T09:15:25;-3.20;99.90
36654;DHT22;22650;49.350;20.898;2022-12-18T09:17:58;-3.10;99.90
36654;DHT22;22650;49.350;20.898;2022-12-18T09:20:31;-3.00;99.90
36654;DHT22;22650;49.350;20.898;2022-12-18T09:23:05;-2.90;99.90
36654;DHT22;22650;49.350;20.898;2022-12-18T09:25:39;-2.80;99.90
36654;DHT22;22650;49.350;20.898;2022-12-18T09:28:15;-2.60;99.90
36654;DHT22;22650;49.350;20.898;2022-12-18T09:30:49;-2.50;99.90
36654;DHT22;22650;49.350;20.898;2022-12-18T09:33:22;-2.40;99.90
36654;DHT22;22650;49.350;20.898;2022-12-18T09:35:55;-2.30;99.90
36654;DHT22;22650;49.350;20.898;2022-12-18T09:38:29;-2.30;99.90
36654;DHT22;22650;49.350;20.898;2022-12-18T09:41:06;-2.30;99.90
36654;DHT22;22650;49.350;20.898;2022-12-18T09:43:50;-2.40;99.90
36654;DHT22;22650;49.350;20.898;2022-12-18T09:46:28;-2.40;99.90
36654;DHT22;22650;49.350;20.898;2022-12-18T09:49:05;-2.50;99.90
36654;DHT22;22650;49.350;20.898;2022-12-18T09:51:44;-2.50;99.90
36654;DHT22;22650;49.350;20.898;2022-12-18T09:54:21;-2.40;99.90
36654;DHT22;22650;49.350;20.898;2022-12-18T09:56:55;-2.40;99.90
36654;DHT22;22650;49.350;20.898;2022-12-18T09:59:34;-2.30;99.90
36654;DHT22;22650;49.350;20.898;2022-12-18T10:02:14;-2.20;99.90
36654;DHT22;22650;49.350;20.898;2022-12-18T10:05:00;-2.20;99.90
36654;DHT22;22650;49.350;20.898;2022-12-18T10:07:42;-2.10;99.90
36654;DHT22;22650;49.350;20.898;2022-12-18T10:10:24;-2.10;99.90
36654;DHT22;22650;49.350;20.898;2022-12-18T10:13:06;-2.10;99.90
36654;DHT22;22650;49.350;20.898;2022-12-18T10:18:59;-2.00;99.90
36654;DHT22;22650;49.350;20.898;2022-12-18T10:21:41;-2.00;99.90
36654;DHT22;22650;49.350;20.898;2022-12-18T10:24:23;-2.00;99.90
36654;DHT22;22650;49.350;20.898;2022-12-18T10:27:09;-1.90;99.90
36654;DHT22;22650;49.350;20.898;2022-12-18T10:29:44;-1.90;99.90
36654;DHT22;22650;49.350;20.898;2022-12-18T10:32:22;-2.00;99.90
36654;DHT22;22650;49.350;20.898;2022-12-18T10:34:57;-1.90;99.90
36654;DHT22;22650;49.350;20.898;2022-12-18T10:37:32;-1.90;99.90
36654;DHT22;22650;49.350;20.898;2022-12-18T10:40:09;-1.90;99.90
36654;DHT22;22650;49.350;20.898;2022-12-18T10:43:03;-1.90;99.90
36654;DHT22;22650;49.350;20.898;2022-12-18T10:45:37;-2.00;99.90
36654;DHT22;22650;49.350;20.898;2022-12-18T10:48:22;-2.10;99.90
36654;DHT22;22650;49.350;20.898;2022-12-18T10:50:57;-2.00;99.90
36654;DHT22;22650;49.350;20.898;2022-12-18T10:53:52;-2.00;99.90
36654;DHT22;22650;49.350;20.898;2022-12-18T10:56:28;-2.10;99.90
36654;DHT22;22650;49.350;20.898;2022-12-18T10:59:04;-2.00;99.90
36654;DHT22;22650;49.350;20.898;2022-12-18T11:01:51;-2.10;99.90
36654;DHT22;22650;49.350;20.898;2022-12-18T11:04:29;-2.00;99.90
36654;DHT22;22650;49.350;20.898;2022-12-18T11:07:04;-2.00;99.90
36654;DHT22;22650;49.350;20.898;2022-12-18T11:09:38;-1.90;99.90
36654;DHT22;22650;49.350;20.898;2022-12-18T11:12:16;-2.00;99.90
36654;DHT22;22650;49.350;20.898;2022-12-18T11:14:51;-1.90;99.90
36654;DHT22;22650;49.350;20.898;2022-12-18T11:17:28;-1.90;99.90
36654;DHT22;22650;49.350;20.898;2022-12-18T11:20:05;-1.80;99.90
36654;DHT22;22650;49.350;20.898;2022-12-18T11:22:40;-1.70;99.90
36654;DHT22;22650;49.350;20.898;2022-12-18T11:25:18;-1.70;99.90
36654;DHT22;22650;49.350;20.898;2022-12-18T11:28:33;-1.60;99.90
36654;DHT22;22650;49.350;20.898;2022-12-18T11:31:31;-1.60;99.90
36654;DHT22;22650;49.350;20.898;2022-12-18T11:34:09;-1.60;99.90
36654;DHT22;22650;49.350;20.898;2022-12-18T11:37:03;-1.60;99.90
36654;DHT22;22650;49.350;20.898;2022-12-18T11:39:40;-1.60;99.90
36654;DHT22;22650;49.350;20.898;2022-12-18T11:42:20;-1.60;99.90
36654;DHT22;22650;49.350;20.898;2022-12-18T11:44:58;-1.60;99.90
36654;DHT22;22650;49.350;20.898;2022-12-18T11:47:38;-1.60;99.90
36654;DHT22;22650;49.350;20.898;2022-12-18T11:50:15;-1.50;99.90
36654;DHT22;22650;49.350;20.898;2022-12-18T11:52:52;-1.50;99.90
36654;DHT22;22650;49.350;20.898;2022-12-18T11:55:51;-1.40;99.90
36654;DHT22;22650;49.350;20.898;2022-12-18T11:58:37;-1.20;99.90
36654;DHT22;22650;49.350;20.898;2022-12-18T12:01:23;-0.90;99.90
36654;DHT22;22650;49.350;20.898;2022-12-18T12:04:13;-0.70;99.90
36654;DHT22;22650;49.350;20.898;2022-12-18T12:06:56;-0.40;99.90
36654;DHT22;22650;49.350;20.898;2022-12-18T12:09:43;-0.20;99.90
36654;DHT22;22650;49.350;20.898;2022-12-18T12:12:33;0.20;99.90
36654;DHT22;22650;49.350;20.898;2022-12-18T12:15:27;0.50;99.90
36654;DHT22;22650;49.350;20.898;2022-12-18T12:18:08;0.90;99.90
36654;DHT22;22650;49.350;20.898;2022-12-18T12:20:52;1.30;99.90
36654;DHT22;22650;49.350;20.898;2022-12-18T12:23:36;1.60;99.90
36654;DHT22;22650;49.350;20.898;2022-12-18T12:26:18;1.90;99.90
36654;DHT22;22650;49.350;20.898;2022-12-18T12:29:00;2.00;99.90
36654;DHT22;22650;49.350;20.898;2022-12-18T12:31:58;2.00;99.90
36654;DHT22;22650;49.350;20.898;2022-12-18T12:34:39;2.00;99.90
36654;DHT22;22650;49.350;20.898;2022-12-18T12:37:27;2.20;99.90
36654;DHT22;22650;49.350;20.898;2022-12-18T12:40:04;2.30;99.90
36654;DHT22;22650;49.350;20.898;2022-12-18T12:43:02;2.40;99.90
36654;DHT22;22650;49.350;20.898;2022-12-18T12:45:49;2.50;99.90
36654;DHT22;22650;49.350;20.898;2022-12-18T12:48:33;2.70;99.90
36654;DHT22;22650;49.350;20.898;2022-12-18T12:51:12;2.80;99.90
36654;DHT22;22650;49.350;20.898;2022-12-18T12:53:48;2.90;99.90
36654;DHT22;22650;49.350;20.898;2022-12-18T12:56:22;3.00;99.90
36654;DHT22;22650;49.350;20.898;2022-12-18T12:59:08;3.10;99.90
36654;DHT22;22650;49.350;20.898;2022-12-18T13:01:51;3.20;98.10
36654;DHT22;22650;49.350;20.898;2022-12-18T13:04:34;3.20;97.60
36654;DHT22;22650;49.350;20.898;2022-12-18T13:07:14;3.10;95.70
36654;DHT22;22650;49.350;20.898;2022-12-18T13:10:12;3.10;99.00
36654;DHT22;22650;49.350;20.898;2022-12-18T13:12:54;3.10;95.40
36654;DHT22;22650;49.350;20.898;2022-12-18T13:15:38;3.10;98.10
36654;DHT22;22650;49.350;20.898;2022-12-18T13:18:17;3.00;97.60
36654;DHT22;22650;49.350;20.898;2022-12-18T13:21:05;3.10;99.40
36654;DHT22;22650;49.350;20.898;2022-12-18T13:23:41;3.10;96.20
36654;DHT22;22650;49.350;20.898;2022-12-18T13:26:30;2.90;96.80
36654;DHT22;22650;49.350;20.898;2022-12-18T13:29:05;2.70;94.90
36654;DHT22;22650;49.350;20.898;2022-12-18T13:31:59;2.50;98.10
36654;DHT22;22650;49.350;20.898;2022-12-18T13:34:33;2.10;94.90
36654;DHT22;22650;49.350;20.898;2022-12-18T13:37:41;1.90;99.50
36654;DHT22;22650;49.350;20.898;2022-12-18T13:43:39;1.50;99.80
36654;DHT22;22650;49.350;20.898;2022-12-18T13:46:21;1.20;99.90
36654;DHT22;22650;49.350;20.898;2022-12-18T13:49:00;1.00;99.90
36654;DHT22;22650;49.350;20.898;2022-12-18T13:51:34;0.90;99.90
36654;DHT22;22650;49.350;20.898;2022-12-18T13:54:18;0.80;99.90
36654;DHT22;22650;49.350;20.898;2022-12-18T13:56:53;0.60;99.90
36654;DHT22;22650;49.350;20.898;2022-12-18T13:59:33;0.40;99.90
36654;DHT22;22650;49.350;20.898;2022-12-18T14:02:13;0.20;99.90
36654;DHT22;22650;49.350;20.898;2022-12-18T14:04:50;0.00;99.90
36654;DHT22;22650;49.350;20.898;2022-12-18T14:07:25;-0.20;99.90
36654;DHT22;22650;49.350;20.898;2022-12-18T14:10:03;-0.40;99.90
36654;DHT22;22650;49.350;20.898;2022-12-18T14:12:58;-0.60;99.90
36654;DHT22;22650;49.350;20.898;2022-12-18T14:15:40;-0.70;99.90
36654;DHT22;22650;49.350;20.898;2022-12-18T14:18:21;-0.90;99.90
36654;DHT22;22650;49.350;20.898;2022-12-18T14:20:58;-1.10;99.90
36654;DHT22;22650;49.350;20.898;2022-12-18T14:23:34;-1.30;99.90
36654;DHT22;22650;49.350;20.898;2022-12-18T14:26:21;-1.40;99.90
36654;DHT22;22650;49.350;20.898;2022-12-18T14:28:57;-1.60;99.90
36654;DHT22;22650;49.350;20.898;2022-12-18T14:31:32;-1.80;99.90
36654;DHT22;22650;49.350;20.898;2022-12-18T14:34:15;-1.90;99.90
36654;DHT22;22650;49.350;20.898;2022-12-18T14:36:53;-2.00;99.90
36654;DHT22;22650;49.350;20.898;2022-12-18T14:39:28;-2.20;99.90
36654;DHT22;22650;49.350;20.898;2022-12-18T14:42:01;-2.30;99.90
36654;DHT22;22650;49.350;20.898;2022-12-18T14:44:34;-2.40;99.90
36654;DHT22;22650;49.350;20.898;2022-12-18T14:47:27;-2.60;99.90
36654;DHT22;22650;49.350;20.898;2022-12-18T14:50:01;-2.70;99.90
36654;DHT22;22650;49.350;20.898;2022-12-18T14:52:38;-2.80;99.90
36654;DHT22;22650;49.350;20.898;2022-12-18T14:55:15;-2.90;99.90
36654;DHT22;22650;49.350;20.898;2022-12-18T14:57:51;-3.10;99.90
36654;DHT22;22650;49.350;20.898;2022-12-18T15:00:25;-3.30;99.90
36654;DHT22;22650;49.350;20.898;2022-12-18T15:02:59;-3.40;99.90
36654;DHT22;22650;49.350;20.898;2022-12-18T15:05:32;-3.60;99.90
36654;DHT22;22650;49.350;20.898;2022-12-18T15:08:35;-3.60;99.90
36654;DHT22;22650;49.350;20.898;2022-12-18T15:11:26;-3.70;99.90
36654;DHT22;22650;49.350;20.898;2022-12-18T15:13:59;-3.90;99.90
36654;DHT22;22650;49.350;20.898;2022-12-18T15:16:33;-3.90;99.90
36654;DHT22;22650;49.350;20.898;2022-12-18T15:19:08;-4.00;99.90
36654;DHT22;22650;49.350;20.898;2022-12-18T15:21:43;-4.10;99.90
36654;DHT22;22650;49.350;20.898;2022-12-18T15:24:27;-4.10;99.90
36654;DHT22;22650;49.350;20.898;2022-12-18T15:27:02;-4.20;99.90
36654;DHT22;22650;49.350;20.898;2022-12-18T15:29:37;-4.30;99.90
36654;DHT22;22650;49.350;20.898;2022-12-18T15:32:19;-4.40;99.90
36654;DHT22;22650;49.350;20.898;2022-12-18T15:35:02;-4.60;99.90
36654;DHT22;22650;49.350;20.898;2022-12-18T15:37:36;-4.70;99.90
36654;DHT22;22650;49.350;20.898;2022-12-18T15:40:14;-4.70;99.90
36654;DHT22;22650;49.350;20.898;2022-12-18T15:42:50;-4.80;99.90
36654;DHT22;22650;49.350;20.898;2022-12-18T15:45:41;-4.90;99.90
36654;DHT22;22650;49.350;20.898;2022-12-18T15:48:20;-5.00;99.90
36654;DHT22;22650;49.350;20.898;2022-12-18T15:50:55;-5.10;99.90
36654;DHT22;22650;49.350;20.898;2022-12-18T15:53:32;-5.20;99.90
36654;DHT22;22650;49.350;20.898;2022-12-18T15:56:10;-5.30;99.90
36654;DHT22;22650;49.350;20.898;2022-12-18T15:59:01;-5.40;99.90
36654;DHT22;22650;49.350;20.898;2022-12-18T16:01:35;-5.50;99.90
36654;DHT22;22650;49.350;20.898;2022-12-18T16:04:14;-5.50;99.90
36654;DHT22;22650;49.350;20.898;2022-12-18T16:06:48;-5.60;99.90
36654;DHT22;22650;49.350;20.898;2022-12-18T16:09:43;-5.70;99.90
36654;DHT22;22650;49.350;20.898;2022-12-18T16:12:21;-5.70;99.90
36654;DHT22;22650;49.350;20.898;2022-12-18T16:14:55;-5.80;99.90
36654;DHT22;22650;49.350;20.898;2022-12-18T16:17:28;-5.90;99.90
36654;DHT22;22650;49.350;20.898;2022-12-18T16:20:02;-6.00;99.90
36654;DHT22;22650;49.350;20.898;2022-12-18T16:22:35;-6.00;99.90
36654;DHT22;22650;49.350;20.898;2022-12-18T16:25:16;-6.10;99.90
36654;DHT22;22650;49.350;20.898;2022-12-18T16:27:55;-6.10;99.90
36654;DHT22;22650;49.350;20.898;2022-12-18T16:30:30;-6.20;99.90
36654;DHT22;22650;49.350;20.898;2022-12-18T16:33:10;-6.30;99.90